Time;durP1;ratioP1;P1;durP2;ratioP2;P2;SDS_P1;SDS_P2;PMS_P1;PMS_P2;Temp;Humidity;BMP_temperature;BMP_pressure;BME280_temperature;BME280_humidity;BME280_pressure;Samples;Min_cycle;Max_cycle;Signal;HPM_P1;HPM_P2
2021/10/22 00:00:52;;;;;;;2.17;0.95;;;;;;;18.22;61.21;101424.50;4850925;29;20029;-85
2021/10/22 00:03:17;;;;;;;2.42;0.80;;;;;;;18.20;61.34;101423.66;4881767;29;20312;-85
2021/10/22 00:05:43;;;;;;;3.30;1.20;;;;;;;18.21;61.26;101428.00;4850971;29;20119;-84
2021/10/22 00:08:08;;;;;;;3.00;1.00;;;;;;;18.20;61.31;101417.56;4882145;29;20067;-83
2021/10/22 00:10:35;;;;;;;3.40;1.15;;;;;;;18.21;61.24;101428.00;4850876;29;20476;-83
2021/10/22 00:13:03;;;;;;;2.67;0.98;;;;;;;18.21;61.37;101420.19;4850942;29;20071;-85
2021/10/22 00:15:29;;;;;;;1.98;0.70;;;;;;;18.20;61.33;101417.56;4866458;29;20478;-82
2021/10/22 00:17:55;;;;;;;2.55;1.05;;;;;;;18.19;61.22;101426.28;4851028;29;20040;-86
2021/10/22 00:20:21;;;;;;;2.33;1.05;;;;;;;18.20;61.38;101422.78;4865985;29;20036;-87
2021/10/22 00:22:46;;;;;;;1.98;0.88;;;;;;;18.19;61.40;101416.72;4866519;29;20052;-87
2021/10/22 00:25:11;;;;;;;2.53;0.88;;;;;;;18.20;61.44;101422.78;4866331;29;20056;-86
2021/10/22 00:27:37;;;;;;;2.13;0.93;;;;;;;18.18;61.14;101419.31;4881578;29;20491;-86
2021/10/22 00:30:04;;;;;;;2.28;1.00;;;;;;;18.17;61.23;101418.47;4898288;29;20036;-86
2021/10/22 00:32:29;;;;;;;2.25;0.90;;;;;;;18.19;61.14;101414.13;4901430;29;20032;-86
2021/10/22 00:34:54;;;;;;;3.13;1.00;;;;;;;18.18;61.18;101417.59;4885217;29;20028;-84
2021/10/22 00:37:21;;;;;;;2.30;0.90;;;;;;;18.19;61.12;101413.25;4869854;29;20064;-85
2021/10/22 00:39:47;;;;;;;3.03;0.90;;;;;;;18.18;61.13;101409.78;4885339;29;20068;-82
2021/10/22 00:42:13;;;;;;;2.03;0.90;;;;;;;18.17;61.34;101407.19;4885405;29;20033;-82
2021/10/22 00:44:39;;;;;;;3.70;1.00;;;;;;;18.16;60.83;101408.94;4885179;29;20512;-83
2021/10/22 00:47:06;;;;;;;3.30;0.90;;;;;;;18.16;61.15;101414.13;4885096;29;20123;-85
2021/10/22 00:49:31;;;;;;;4.05;1.00;;;;;;;18.15;61.02;101403.72;4900815;29;20122;-82
2021/10/22 00:51:57;;;;;;;3.00;1.00;;;;;;;18.16;61.28;101406.31;4869769;29;20480;-83
2021/10/22 00:54:23;;;;;;;3.47;1.00;;;;;;;18.15;60.97;101401.97;4900773;29;20032;-84
2021/10/22 00:56:49;;;;;;;2.50;1.05;;;;;;;18.17;61.05;101395.00;4854058;29;20025;-82
2021/10/22 00:59:15;;;;;;;1.85;1.00;;;;;;;18.18;60.97;101398.47;4884800;29;20229;-82
2021/10/22 01:01:41;;;;;;;2.92;1.00;;;;;;;18.17;60.87;101396.75;4869242;29;20032;-82
2021/10/22 01:04:08;;;;;;;3.30;1.05;;;;;;;18.16;61.13;101385.47;4884949;29;20033;-85
2021/10/22 01:06:38;;;;;;;1.92;1.00;;;;;;;18.14;60.89;101395.03;4884674;29;20049;-82
2021/10/22 01:09:06;;;;;;;2.58;1.02;;;;;;;18.14;61.05;101389.81;4869425;29;20147;-84
2021/10/22 01:11:33;;;;;;;2.22;0.90;;;;;;;18.14;60.75;101388.94;4884769;29;20028;-82
2021/10/22 01:14:01;;;;;;;2.30;0.70;;;;;;;18.14;61.22;101384.63;4900226;29;20142;-82
2021/10/22 01:16:27;;;;;;;2.45;0.98;;;;;;;18.15;61.04;101391.53;4901344;29;20358;-82
2021/10/22 01:18:52;;;;;;;3.35;1.10;;;;;;;18.14;61.02;101387.22;4868912;29;20115;-84
2021/10/22 01:21:17;;;;;;;2.30;0.93;;;;;;;18.14;60.77;101386.34;4853577;29;20032;-82
2021/10/22 01:23:43;;;;;;;3.08;1.05;;;;;;;18.13;61.17;101380.25;4869021;29;20036;-84
2021/10/22 01:26:08;;;;;;;3.22;1.10;;;;;;;18.13;60.99;101369.84;4884316;29;20116;-82
2021/10/22 01:28:34;;;;;;;3.28;1.10;;;;;;;18.13;60.88;101372.44;4899811;29;20490;-81
2021/10/22 01:30:59;;;;;;;2.20;0.90;;;;;;;18.12;60.91;101362.91;4883960;29;20021;-83
2021/10/22 01:33:25;;;;;;;2.45;0.95;;;;;;;18.13;61.03;101364.63;4868683;29;20374;-82
2021/10/22 01:35:51;;;;;;;2.25;0.93;;;;;;;18.13;60.86;101369.00;4868886;29;20025;-82
2021/10/22 01:38:21;;;;;;;2.50;1.10;;;;;;;18.11;61.10;101365.53;4884137;29;20024;-83
2021/10/22 01:40:49;;;;;;;2.05;0.70;;;;;;;18.09;60.84;101355.09;4899511;29;20123;-82
2021/10/22 01:43:18;;;;;;;3.03;0.75;;;;;;;18.11;60.79;101360.31;4883107;29;20092;-84
2021/10/22 01:45:43;;;;;;;2.83;0.90;;;;;;;18.11;60.96;101358.56;4884391;29;20426;-85
2021/10/22 01:48:10;;;;;;;2.85;1.10;;;;;;;18.10;60.92;101364.66;4869364;29;20035;-86
2021/10/22 01:50:36;;;;;;;2.92;1.00;;;;;;;18.11;61.13;101368.97;4869305;29;20461;-86
2021/10/22 01:53:01;;;;;;;1.77;0.70;;;;;;;18.09;61.13;101363.81;4884583;29;20071;-86
2021/10/22 01:55:27;;;;;;;2.78;1.10;;;;;;;18.08;61.04;101366.41;4884222;29;20038;-87
2021/10/22 01:57:52;;;;;;;1.75;0.80;;;;;;;18.09;60.91;101358.59;4868719;29;20115;-86
2021/10/22 02:00:17;;;;;;;1.60;0.80;;;;;;;18.10;61.05;101349.03;4868436;29;20060;-86
2021/10/22 02:02:43;;;;;;;2.25;1.00;;;;;;;18.09;60.68;101353.38;4884009;29;20387;-87
2021/10/22 02:05:09;;;;;;;4.25;0.90;;;;;;;18.10;60.77;101349.03;4900917;29;20029;-88
2021/10/22 02:07:35;;;;;;;2.13;0.80;;;;;;;18.09;60.49;101347.28;4868289;29;20057;-86
2021/10/22 02:10:00;;;;;;;2.20;0.70;;;;;;;18.08;60.72;101345.56;4868369;29;20055;-85
2021/10/22 02:12:26;;;;;;;1.48;0.70;;;;;;;18.08;60.60;101341.22;4852841;29;20032;-83
2021/10/22 02:14:53;;;;;;;2.63;1.00;;;;;;;18.09;60.58;101344.69;4868267;29;20470;-86
2021/10/22 02:17:19;;;;;;;2.53;0.90;;;;;;;18.07;60.80;101333.41;4883844;29;20032;-87
2021/10/22 02:19:48;;;;;;;2.08;1.00;;;;;;;18.09;60.79;101339.47;4884014;29;20028;-86
2021/10/22 02:22:14;;;;;;;2.67;1.10;;;;;;;18.08;60.73;101327.34;4868812;29;20111;-85
2021/10/22 02:24:39;;;;;;;3.35;1.00;;;;;;;18.07;60.90;101331.69;4900428;29;20033;-86
2021/10/22 02:27:05;;;;;;;2.05;0.80;;;;;;;18.06;60.75;101322.13;4867998;29;20035;-86
2021/10/22 02:29:31;;;;;;;3.63;0.90;;;;;;;18.06;60.51;101313.44;4852865;29;20040;-84
2021/10/22 02:31:56;;;;;;;1.85;0.70;;;;;;;18.05;60.96;101314.31;4883557;29;20505;-86
2021/10/22 02:34:22;;;;;;;3.10;1.00;;;;;;;18.06;60.59;101310.84;4883491;29;20088;-85
2021/10/22 02:36:50;;;;;;;3.22;1.00;;;;;;;18.05;60.57;101312.59;4883674;29;20117;-85
2021/10/22 02:39:16;;;;;;;3.72;0.80;;;;;;;18.06;60.76;101313.44;4868142;29;20033;-85
2021/10/22 02:41:42;;;;;;;3.25;0.98;;;;;;;18.05;60.83;101304.78;4867782;29;20081;-86
2021/10/22 02:44:08;;;;;;;2.45;0.70;;;;;;;18.06;60.77;101297.81;4883143;29;20500;-85
2021/10/22 02:46:33;;;;;;;2.85;0.93;;;;;;;18.06;60.89;101293.47;4898777;29;20029;-85
2021/10/22 02:48:59;;;;;;;2.03;0.85;;;;;;;18.08;60.76;101303.91;4852308;29;20477;-87
2021/10/22 02:51:24;;;;;;;2.03;0.85;;;;;;;18.06;60.98;101297.81;4883171;29;20071;-86
2021/10/22 02:53:49;;;;;;;3.20;1.00;;;;;;;18.06;60.86;101295.22;4867377;29;20035;-84
2021/10/22 02:56:15;;;;;;;2.72;0.90;;;;;;;18.05;60.77;101302.16;4898338;29;20028;-84
2021/10/22 02:58:40;;;;;;;2.58;0.93;;;;;;;18.05;60.69;101309.09;4867328;29;20116;-83
2021/10/22 03:01:06;;;;;;;2.40;0.90;;;;;;;18.06;60.63;101297.81;4867673;29;20138;-85
2021/10/22 03:03:32;;;;;;;3.15;1.05;;;;;;;18.06;60.59;101297.81;4867330;29;20500;-84
2021/10/22 03:05:57;;;;;;;2.55;0.90;;;;;;;18.06;60.51;101309.09;4851881;29;20052;-86
2021/10/22 03:08:22;;;;;;;2.55;1.02;;;;;;;18.06;60.83;101305.63;4867592;29;20088;-86
2021/10/22 03:10:51;;;;;;;2.78;0.98;;;;;;;18.04;60.55;101292.63;4851809;29;20029;-86
2021/10/22 03:13:16;;;;;;;2.38;0.88;;;;;;;18.04;61.02;101307.38;4882941;29;20040;-87
2021/10/22 03:15:42;;;;;;;2.50;1.00;;;;;;;18.04;60.84;101302.16;4867287;29;20033;-84
2021/10/22 03:18:07;;;;;;;2.60;0.88;;;;;;;18.04;60.59;101302.16;4898173;29;20056;-86
2021/10/22 03:20:32;;;;;;;1.48;0.70;;;;;;;18.04;60.91;101292.63;4882567;29;20029;-87
2021/10/22 03:22:58;;;;;;;2.00;0.82;;;;;;;18.05;60.83;101290.88;4851693;29;20438;-86
2021/10/22 03:25:24;;;;;;;2.42;0.80;;;;;;;18.04;60.50;101292.63;4866766;29;20036;-86
2021/10/22 03:27:51;;;;;;;1.77;0.70;;;;;;;18.05;60.61;101294.34;4899300;29;20040;-87
2021/10/22 03:30:16;;;;;;;2.15;0.70;;;;;;;18.04;60.76;101289.16;4898053;29;20434;-87
2021/10/22 03:32:42;;;;;;;2.58;0.95;;;;;;;18.03;60.46;101283.09;4898114;29;20056;-87
2021/10/22 03:35:08;;;;;;;2.70;1.00;;;;;;;18.03;60.63;101290.00;4883285;29;20028;-85
2021/10/22 03:37:33;;;;;;;3.47;1.10;;;;;;;18.01;60.55;101284.81;4867257;29;20028;-87
2021/10/22 03:39:59;;;;;;;1.67;0.70;;;;;;;18.02;60.53;101291.75;4851543;29;20092;-85
2021/10/22 03:42:24;;;;;;;1.50;0.75;;;;;;;18.03;60.39;101300.41;4866281;29;20044;-88
2021/10/22 03:44:50;;;;;;;1.95;0.70;;;;;;;18.04;60.39;101291.75;4882630;29;20039;-86
2021/10/22 03:47:16;;;;;;;2.08;0.90;;;;;;;18.03;60.52;101300.41;4866978;29;20069;-87
2021/10/22 03:49:43;;;;;;;1.52;0.65;;;;;;;18.03;60.55;101295.22;4882755;29;20430;-88
2021/10/22 03:52:08;;;;;;;1.85;0.60;;;;;;;18.05;60.68;101312.59;4882558;29;20039;-87
2021/10/22 03:54:34;;;;;;;2.15;0.70;;;;;;;18.05;60.71;101298.69;4897685;29;20037;-87
2021/10/22 03:56:59;;;;;;;1.75;0.80;;;;;;;18.04;60.55;101313.44;4866742;29;20067;-86
2021/10/22 03:59:24;;;;;;;2.72;0.90;;;;;;;18.04;60.41;101317.78;4866561;29;20092;-87
2021/10/22 04:01:50;;;;;;;3.10;0.90;;;;;;;18.02;60.40;101325.59;4867216;29;20037;-87
2021/10/22 04:04:16;;;;;;;2.53;0.95;;;;;;;18.01;60.65;101334.31;4866069;29;20032;-85
2021/10/22 04:06:41;;;;;;;1.75;0.77;;;;;;;18.03;60.57;101342.09;4851187;29;20052;-87
2021/10/22 04:09:08;;;;;;;2.47;0.82;;;;;;;18.03;60.46;101347.28;4898895;29;20040;-87
2021/10/22 04:11:34;;;;;;;1.70;0.60;;;;;;;18.02;60.57;101346.44;4897523;29;20036;-84
2021/10/22 04:14:01;;;;;;;1.52;0.73;;;;;;;18.02;60.56;101340.38;4882128;29;20032;-87
2021/10/22 04:16:27;;;;;;;1.45;0.70;;;;;;;18.00;60.72;101340.38;4866885;29;20025;-86
2021/10/22 04:18:52;;;;;;;1.45;0.80;;;;;;;18.01;60.40;101347.31;4897446;29;20120;-85
2021/10/22 04:21:17;;;;;;;3.08;1.13;;;;;;;18.01;60.73;101342.13;4851086;29;20040;-85
2021/10/22 04:23:43;;;;;;;1.85;0.80;;;;;;;18.03;60.47;101355.09;4882113;29;20055;-84
2021/10/22 04:26:08;;;;;;;2.35;0.80;;;;;;;18.01;60.63;101355.13;4881768;29;20060;-86
2021/10/22 04:28:34;;;;;;;2.20;0.60;;;;;;;18.01;60.48;101344.72;4897504;29;20036;-87
2021/10/22 04:30:59;;;;;;;2.45;0.80;;;;;;;18.00;60.08;101342.13;4897471;29;20119;-87
2021/10/22 04:33:25;;;;;;;1.73;0.65;;;;;;;18.02;60.72;101342.97;4866551;29;20039;-85
2021/10/22 04:35:50;;;;;;;1.80;0.80;;;;;;;18.00;60.41;101332.56;4866461;29;20482;-86
2021/10/22 04:40:54;;;;;;;2.25;0.80;;;;;;;18.01;60.66;101343.88;4883035;29;20036;-87
2021/10/22 04:43:20;;;;;;;2.38;0.80;;;;;;;18.01;60.35;101333.44;4898790;29;20466;-87
2021/10/22 04:45:51;;;;;;;2.58;0.85;;;;;;;18.01;60.37;101331.69;4882296;29;20092;-87
2021/10/22 04:48:17;;;;;;;1.65;0.70;;;;;;;18.01;60.50;101334.31;4882125;29;20430;-89
2021/10/22 04:50:48;;;;;;;2.78;0.90;;;;;;;18.00;60.26;101322.13;4866315;29;20032;-87
2021/10/22 04:53:14;;;;;;;2.13;0.80;;;;;;;17.99;60.43;101327.38;4866780;29;20076;-88
2021/10/22 04:55:40;;;;;;;2.38;0.80;;;;;;;17.99;60.35;101324.78;4881433;29;20478;-87
2021/10/22 04:58:09;;;;;;;2.75;0.80;;;;;;;17.99;60.43;101317.81;4898923;29;20089;-85
2021/10/22 05:00:35;;;;;;;2.33;0.85;;;;;;;17.98;60.23;101312.59;4881297;29;20036;-83
2021/10/22 05:03:01;;;;;;;2.78;0.77;;;;;;;17.97;60.48;101309.16;4896859;29;20214;-84
2021/10/22 05:05:27;;;;;;;2.95;0.70;;;;;;;17.98;60.20;101303.03;4898102;29;20028;-83
2021/10/22 05:07:53;;;;;;;1.83;0.70;;;;;;;17.98;60.20;101302.19;4881456;29;20108;-83
2021/10/22 05:10:18;;;;;;;2.90;1.05;;;;;;;17.98;60.49;101299.59;4865705;29;20044;-82
2021/10/22 05:12:44;;;;;;;3.60;0.80;;;;;;;17.97;60.30;101303.06;4897237;29;20024;-85
2021/10/22 05:15:11;;;;;;;1.88;0.80;;;;;;;17.97;60.35;101303.06;4898697;29;20115;-86
2021/10/22 05:17:37;;;;;;;2.60;0.90;;;;;;;17.97;60.20;101303.06;4901434;29;20020;-87
2021/10/22 05:20:12;;;;;;;2.55;0.70;;;;;;;17.96;60.36;101291.75;4900947;29;20123;-87
2021/10/22 05:22:38;;;;;;;3.22;0.98;;;;;;;17.98;60.27;101294.38;4885042;29;20035;-88
2021/10/22 05:25:11;;;;;;;1.75;0.77;;;;;;;17.95;60.29;101282.25;4901004;29;20124;-87
2021/10/22 05:27:37;;;;;;;2.22;0.80;;;;;;;17.97;60.27;101282.25;4870833;29;20137;-86
2021/10/22 05:30:10;;;;;;;1.83;0.50;;;;;;;17.95;60.37;101282.25;4884985;29;20490;-88
2021/10/22 05:32:36;;;;;;;3.28;0.80;;;;;;;17.95;60.02;101282.25;4855844;29;20055;-88
2021/10/22 05:35:02;;;;;;;2.83;0.95;;;;;;;17.95;60.29;101276.16;4886519;29;20039;-87
2021/10/22 05:37:27;;;;;;;2.03;0.70;;;;;;;17.96;60.45;101270.06;4902007;29;20029;-87
2021/10/22 05:39:53;;;;;;;2.92;0.80;;;;;;;17.95;60.38;101256.19;4901204;29;20036;-88
2021/10/22 05:42:19;;;;;;;2.35;0.90;;;;;;;17.95;60.17;101255.34;4885572;29;20115;-87
2021/10/22 05:44:44;;;;;;;3.80;1.00;;;;;;;17.94;60.15;101269.22;4901298;29;20027;-87
2021/10/22 05:47:12;;;;;;;2.05;0.88;;;;;;;17.95;60.29;101265.75;4869024;29;20043;-86
2021/10/22 05:49:42;;;;;;;2.33;0.70;;;;;;;17.93;60.35;101257.09;4854331;29;20082;-88
2021/10/22 05:52:07;;;;;;;2.85;1.00;;;;;;;17.93;60.25;101254.47;4869504;29;20115;-87
2021/10/22 05:54:32;;;;;;;2.60;0.80;;;;;;;17.93;60.59;101260.53;4899820;29;20111;-86
2021/10/22 05:56:58;;;;;;;2.33;0.90;;;;;;;17.94;60.12;101258.81;4868598;29;20029;-88
2021/10/22 05:59:23;;;;;;;3.90;1.10;;;;;;;17.94;60.24;101261.41;4869406;29;20039;-86
2021/10/22 06:01:49;;;;;;;2.35;0.75;;;;;;;17.94;60.16;101271.81;4853623;29;20033;-85
2021/10/22 06:04:15;;;;;;;1.23;0.65;;;;;;;17.94;60.23;101267.47;4900837;29;20035;-87
2021/10/22 06:06:40;;;;;;;3.40;0.80;;;;;;;17.93;60.24;101268.34;4883723;29;20048;-87
2021/10/22 06:09:06;;;;;;;2.45;0.88;;;;;;;17.93;60.19;101273.56;4899471;29;20028;-87
2021/10/22 06:11:31;;;;;;;1.67;0.70;;;;;;;17.93;60.27;101268.34;4899514;29;20557;-87
2021/10/22 06:13:57;;;;;;;1.65;0.70;;;;;;;17.94;60.15;101280.50;4884102;29;20160;-87
2021/10/22 06:16:23;;;;;;;1.13;0.60;;;;;;;17.93;60.36;101288.34;4899357;29;20076;-86
2021/10/22 06:18:51;;;;;;;1.90;0.55;;;;;;;17.93;60.36;101275.31;4884211;29;20028;-87
2021/10/22 06:21:30;;;;;;;1.75;0.50;;;;;;;17.93;60.43;101277.91;4884692;29;20033;-86
2021/10/22 06:24:01;;;;;;;1.98;0.90;;;;;;;17.92;60.23;101297.88;4883617;29;20059;-87
2021/10/22 06:26:31;;;;;;;1.95;0.70;;;;;;;17.93;60.04;101289.19;4884162;29;20035;-87
2021/10/22 06:28:57;;;;;;;1.55;0.80;;;;;;;17.93;60.02;101277.91;4898480;29;20032;-86
2021/10/22 06:31:23;;;;;;;1.83;0.70;;;;;;;17.93;60.13;101281.38;4884047;29;20108;-87
2021/10/22 06:33:49;;;;;;;2.15;0.80;;;;;;;17.94;60.13;101292.66;4868272;29;20033;-86
2021/10/22 06:36:17;;;;;;;2.88;0.90;;;;;;;17.93;60.06;101289.19;4900283;29;20095;-87
2021/10/22 06:38:43;;;;;;;3.63;1.77;;;;;;;17.95;60.01;101276.16;4900198;29;20029;-87
2021/10/22 06:41:09;;;;;;;3.38;0.60;;;;;;;17.94;59.91;101272.69;4900272;29;20478;-87
2021/10/22 06:43:39;;;;;;;2.03;0.73;;;;;;;17.95;60.08;101273.56;4883657;29;20123;-87
2021/10/22 06:46:07;;;;;;;2.40;0.88;;;;;;;17.95;59.98;101276.16;4883535;29;20028;-87
2021/10/22 06:48:34;;;;;;;2.45;0.90;;;;;;;17.97;59.84;101277.91;4900364;29;20024;-88
2021/10/22 06:51:06;;;;;;;1.98;0.85;;;;;;;17.99;59.82;101285.72;4883673;29;20489;-88
2021/10/22 06:53:32;;;;;;;2.33;0.70;;;;;;;17.99;60.15;101288.31;4868363;29;20040;-89
2021/10/22 06:55:58;;;;;;;1.75;0.85;;;;;;;17.98;59.99;101281.34;4852682;29;20509;-86
2021/10/22 06:58:23;;;;;;;2.13;0.88;;;;;;;18.01;59.47;101290.03;4898891;29;20025;-86
2021/10/22 07:00:50;;;;;;;3.40;0.98;;;;;;;18.02;59.75;101283.06;4852335;29;20029;-87
2021/10/22 07:03:20;;;;;;;2.63;0.90;;;;;;;18.03;59.54;101293.50;4868750;29;20119;-89
2021/10/22 07:08:12;;;;;;;1.23;0.70;;;;;;;18.00;59.85;101285.69;4867981;29;20039;-85
2021/10/22 07:10:38;;;;;;;2.28;0.90;;;;;;;17.99;59.70;101302.19;4883214;29;20116;-87
2021/10/22 07:13:04;;;;;;;3.15;0.82;;;;;;;17.98;59.68;101296.97;4899671;29;20092;-88
2021/10/22 07:15:30;;;;;;;2.13;0.63;;;;;;;17.97;59.87;101296.13;4867274;29;20154;-87
2021/10/22 07:17:59;;;;;;;2.97;1.00;;;;;;;17.97;59.74;101310.88;4899166;29;20030;-86
2021/10/22 07:20:26;;;;;;;2.42;0.77;;;;;;;17.98;59.52;101302.19;4883100;29;20052;-86
2021/10/22 07:22:53;;;;;;;3.97;0.90;;;;;;;17.96;60.05;101303.94;4882865;29;20028;-87
2021/10/22 07:25:20;;;;;;;3.03;0.90;;;;;;;17.97;59.84;101310.88;4867891;29;20043;-86
2021/10/22 07:27:48;;;;;;;2.92;0.70;;;;;;;17.97;59.63;101316.09;4882713;29;20504;-87
2021/10/22 07:30:14;;;;;;;2.30;0.75;;;;;;;17.97;59.81;101323.91;4883022;29;20035;-86
2021/10/22 07:32:40;;;;;;;2.20;0.90;;;;;;;17.99;59.70;101320.41;4867220;29;20028;-86
2021/10/22 07:35:07;;;;;;;3.33;0.90;;;;;;;17.99;59.74;101323.03;4851724;29;20040;-87
2021/10/22 07:37:33;;;;;;;2.35;0.80;;;;;;;18.01;59.67;101323.03;4882594;29;20426;-87
2021/10/22 07:39:58;;;;;;;2.92;0.75;;;;;;;17.99;59.57;101320.41;4851247;29;20048;-87
2021/10/22 07:42:27;;;;;;;2.17;0.80;;;;;;;17.98;59.63;101331.69;4882482;29;20028;-85
2021/10/22 07:44:54;;;;;;;2.28;0.90;;;;;;;17.98;59.83;101318.66;4884067;29;20032;-88
2021/10/22 07:47:20;;;;;;;2.47;0.77;;;;;;;18.01;59.56;101316.06;4898149;29;20032;-86
2021/10/22 07:49:49;;;;;;;2.10;0.80;;;;;;;18.02;59.77;101332.56;4882865;29;20033;-87
2021/10/22 07:52:17;;;;;;;1.88;0.75;;;;;;;17.99;59.81;101324.78;4883086;29;20548;-87
2021/10/22 07:54:42;;;;;;;1.63;0.80;;;;;;;17.97;59.74;101329.97;4882446;29;20092;-88
2021/10/22 07:57:08;;;;;;;2.05;0.85;;;;;;;18.00;59.88;101329.94;4897641;29;20028;-86
2021/10/22 07:59:33;;;;;;;1.55;0.70;;;;;;;18.03;59.43;101327.34;4866485;29;20037;-88
2021/10/22 08:01:59;;;;;;;3.63;0.88;;;;;;;18.01;59.52;101326.50;4866426;29;20123;-87
2021/10/22 08:04:24;;;;;;;2.13;0.85;;;;;;;18.04;59.20;101321.25;4866196;29;20046;-87
2021/10/22 08:06:50;;;;;;;2.10;0.73;;;;;;;18.04;59.61;101328.22;4850903;29;20123;-85
2021/10/22 08:09:15;;;;;;;2.05;0.77;;;;;;;18.02;59.62;101335.16;4881779;29;20139;-85
2021/10/22 08:11:41;;;;;;;2.03;0.77;;;;;;;18.05;59.36;101354.25;4881924;29;20545;-85
2021/10/22 08:14:06;;;;;;;2.75;1.20;;;;;;;18.07;59.31;101336.88;4881796;29;20036;-86
2021/10/22 08:16:32;;;;;;;2.30;0.82;;;;;;;18.07;59.38;101346.41;4881920;29;20040;-87
2021/10/22 08:18:57;;;;;;;2.50;0.98;;;;;;;18.02;59.53;101338.63;4866415;29;20028;-87
2021/10/22 08:21:45;;;;;;;1.90;0.80;;;;;;;18.05;59.44;101361.19;4850990;29;20119;-84
2021/10/22 08:24:08;;;;;;;3.30;0.95;;;;;;;18.15;59.32;101362.03;4898416;29;20512;-85
2021/10/22 08:26:34;;;;;;;1.90;0.73;;;;;;;18.13;59.52;101356.81;4897403;29;20064;-86
2021/10/22 08:28:59;;;;;;;2.40;0.90;;;;;;;18.15;59.39;101370.72;4866139;29;20060;-87
2021/10/22 08:31:25;;;;;;;2.85;1.00;;;;;;;18.18;59.08;101375.03;4850917;29;20040;-86
2021/10/22 08:33:51;;;;;;;1.83;0.80;;;;;;;18.18;58.96;101378.53;4897501;29;20021;-85
2021/10/22 08:36:17;;;;;;;2.67;1.13;;;;;;;18.17;58.80;101376.78;4866084;29;20029;-86
2021/10/22 08:38:43;;;;;;;2.03;0.90;;;;;;;18.16;59.18;101379.38;4897114;29;20047;-83
2021/10/22 08:41:12;;;;;;;2.05;0.70;;;;;;;18.13;59.03;101390.69;4881523;29;20084;-81
2021/10/22 08:43:38;;;;;;;3.10;1.00;;;;;;;18.14;59.21;101388.94;4898273;29;20028;-83
2021/10/22 08:46:07;;;;;;;2.72;0.85;;;;;;;18.14;59.42;101373.31;4881290;29;20098;-84
2021/10/22 08:48:32;;;;;;;3.42;0.90;;;;;;;18.11;59.28;101384.59;4896647;29;20028;-81
2021/10/22 08:50:58;;;;;;;2.70;0.80;;;;;;;18.14;59.17;101392.44;4882693;29;20024;-84
2021/10/22 08:53:29;;;;;;;3.42;0.90;;;;;;;18.12;58.99;101388.06;4900638;29;20060;-83
2021/10/22 08:55:56;;;;;;;2.50;0.93;;;;;;;18.12;59.28;101395.88;4900310;29;20150;-83
2021/10/22 08:58:22;;;;;;;2.58;0.90;;;;;;;18.11;59.28;101396.78;4869643;29;20029;-83
2021/10/22 09:00:48;;;;;;;3.20;0.90;;;;;;;18.10;59.32;101401.13;4854067;29;20036;-84
2021/10/22 09:03:15;;;;;;;4.60;0.93;;;;;;;18.11;59.29;101405.44;4853798;29;20393;-82
2021/10/22 09:06:01;;;;;;;2.15;0.70;;;;;;;18.15;59.06;101399.34;4901540;29;20092;-82
2021/10/22 09:08:38;;;;;;;2.03;0.73;;;;;;;18.14;59.09;101408.06;4884847;29;20032;-82
2021/10/22 09:11:05;;;;;;;1.92;0.80;;;;;;;18.14;59.20;101399.34;4900379;29;20032;-80
2021/10/22 09:13:33;;;;;;;2.75;0.90;;;;;;;18.20;58.98;101410.63;4884655;29;20044;-81
2021/10/22 09:15:59;;;;;;;3.08;0.90;;;;;;;18.17;59.05;101415.84;4899500;29;20033;-83
2021/10/22 09:18:28;;;;;;;1.70;0.90;;;;;;;18.21;58.86;101417.59;4884581;29;20032;-83
2021/10/22 09:20:57;;;;;;;4.20;0.90;;;;;;;18.30;58.58;101420.16;4884806;29;20032;-82
2021/10/22 09:23:29;;;;;;;1.75;0.70;;;;;;;18.35;58.51;101414.06;4884460;29;20421;-82
2021/10/22 09:26:14;;;;;;;3.15;1.10;;;;;;;18.31;58.60;101418.41;4901729;29;20056;-83
2021/10/22 09:28:40;;;;;;;1.98;0.90;;;;;;;18.29;58.83;101417.53;4884368;29;20024;-84
2021/10/22 09:31:19;;;;;;;2.88;0.80;;;;;;;18.35;58.40;101438.38;4901258;29;20029;-83
2021/10/22 09:33:53;;;;;;;2.15;0.98;;;;;;;18.30;58.61;101424.50;4901371;29;20493;-83
2021/10/22 09:36:40;;;;;;;2.45;0.90;;;;;;;18.20;59.03;101431.47;4884099;29;20032;-84
2021/10/22 09:39:13;;;;;;;3.00;0.90;;;;;;;18.20;59.02;101438.41;4884031;29;20028;-85
2021/10/22 09:41:51;;;;;;;;;;;;;;;18.26;58.75;101435.81;4884489;29;20085;-84
2021/10/22 09:44:31;;;;;;;3.50;1.00;;;;;;;18.34;58.44;101423.63;4900934;29;20302;-84
2021/10/22 09:47:05;;;;;;;3.85;1.00;;;;;;;18.33;58.47;101434.91;4899604;29;20080;-83
2021/10/22 09:49:40;;;;;;;2.17;0.70;;;;;;;18.36;58.49;101431.44;4884197;29;20396;-82
2021/10/22 09:52:28;;;;;;;2.42;0.90;;;;;;;18.32;58.70;101442.75;4899566;29;20032;-83
2021/10/22 09:55:05;;;;;;;1.80;0.70;;;;;;;18.35;58.37;101448.78;4883834;29;20116;-84
2021/10/22 09:57:30;;;;;;;2.40;0.95;;;;;;;18.34;58.62;101439.25;4900570;29;20032;-84
2021/10/22 10:00:27;;;;;;;3.05;0.77;;;;;;;18.42;58.16;101444.44;4883727;29;20029;-84
2021/10/22 10:02:52;;;;;;;2.20;0.80;;;;;;;18.44;58.21;101437.47;4867750;29;20131;-84
2021/10/22 10:05:18;;;;;;;3.80;1.17;;;;;;;18.42;57.99;101447.94;4900372;29;20157;-82
2021/10/22 10:07:46;;;;;;;3.13;0.90;;;;;;;18.36;58.51;101440.13;4883708;29;20059;-80
2021/10/22 10:10:12;;;;;;;2.65;1.08;;;;;;;18.32;58.67;101455.78;4883710;29;20056;-83
2021/10/22 10:12:39;;;;;;;1.65;0.82;;;;;;;18.36;58.82;101457.50;4883625;29;20123;-81
2021/10/22 10:15:09;;;;;;;2.25;0.80;;;;;;;18.35;58.72;101467.03;4899049;29;20041;-84
2021/10/22 10:17:46;;;;;;;3.30;0.80;;;;;;;18.37;58.39;101465.28;4900322;29;20537;-82
2021/10/22 10:20:18;;;;;;;4.15;1.00;;;;;;;18.39;58.73;101457.47;4899143;29;20025;-83
2021/10/22 10:22:46;;;;;;;2.95;0.93;;;;;;;18.38;58.23;101459.22;4883359;29;20033;-83
2021/10/22 10:25:19;;;;;;;2.25;0.90;;;;;;;18.43;58.06;101457.47;4900353;29;20107;-82
2021/10/22 10:27:50;;;;;;;2.38;0.98;;;;;;;18.47;57.88;101461.78;4900220;29;20028;-82
2021/10/22 10:30:34;;;;;;;3.13;1.05;;;;;;;18.48;57.98;101473.09;4883470;29;20464;-78
2021/10/22 10:33:01;;;;;;;;;;;;;;;18.48;57.90;101473.94;4883668;29;20031;-81
2021/10/22 10:35:33;;;;;;;3.80;0.93;;;;;;;18.50;57.97;101480.03;4898945;29;20366;-82
2021/10/22 10:37:59;;;;;;;2.45;0.90;;;;;;;18.53;57.69;101487.00;4900029;29;20025;-82
2021/10/22 10:40:29;;;;;;;2.95;1.00;;;;;;;18.47;57.94;101484.38;4883313;29;20412;-83
2021/10/22 10:42:56;;;;;;;3.10;0.68;;;;;;;18.38;58.35;101480.06;4883093;29;20088;-80
2021/10/22 10:45:23;;;;;;;2.58;0.82;;;;;;;18.34;58.62;101490.50;4898551;29;20028;-83
2021/10/22 10:47:51;;;;;;;2.38;0.80;;;;;;;18.30;58.59;101482.69;4882796;29;20028;-82
2021/10/22 10:50:40;;;;;;;3.05;1.10;;;;;;;18.33;58.66;101479.19;4899650;29;20116;-83
2021/10/22 10:53:10;;;;;;;2.15;0.90;;;;;;;18.32;58.52;101477.47;4882790;29;20028;-81
2021/10/22 10:55:43;;;;;;;3.03;0.95;;;;;;;18.36;58.41;101483.56;4898400;29;20030;-82
2021/10/22 10:58:08;;;;;;;2.78;1.00;;;;;;;18.34;58.48;101493.13;4899467;29;20462;-82
2021/10/22 11:00:42;;;;;;;2.03;0.93;;;;;;;18.31;58.62;101501.78;4882727;29;20040;-83
2021/10/22 11:03:08;;;;;;;;;;;;;;;18.28;58.73;101487.03;4899943;29;20108;-84
2021/10/22 11:05:46;;;;;;;2.13;0.98;;;;;;;18.27;58.65;101489.66;4882978;29;19943;-84
2021/10/22 11:08:23;;;;;;;2.60;0.93;;;;;;;18.29;58.71;101504.41;4882490;29;20040;-84
2021/10/22 11:11:10;;;;;;;3.58;1.05;;;;;;;18.36;58.32;101507.00;4882425;29;20028;-83
2021/10/22 11:13:41;;;;;;;2.60;0.80;;;;;;;18.30;58.59;101508.75;4897734;29;20036;-84
2021/10/22 11:19:09;;;;;;;3.13;1.00;;;;;;;18.33;58.50;101512.22;4899581;29;20071;-84
2021/10/22 11:21:36;;;;;;;3.03;1.00;;;;;;;18.32;58.57;101507.88;4898775;29;20049;-80
2021/10/22 11:24:03;;;;;;;1.55;0.70;;;;;;;18.32;58.55;101520.91;4897857;29;20127;-82
2021/10/22 11:26:29;;;;;;;2.45;1.00;;;;;;;18.38;58.28;101519.16;4882294;29;20033;-81
2021/10/22 11:29:18;;;;;;;2.35;1.00;;;;;;;18.38;58.38;101521.78;4897849;29;20028;-80
2021/10/22 11:31:50;;;;;;;2.88;1.23;;;;;;;18.41;58.39;101528.72;4882429;29;20024;-84
2021/10/22 11:34:21;;;;;;;2.42;1.00;;;;;;;18.41;58.31;101520.88;4882029;29;20037;-85
2021/10/22 11:37:15;;;;;;;2.60;0.90;;;;;;;18.33;58.86;101535.66;4882116;29;20034;-80